createdAt,value
2017-08-09T00:00:14.450Z,0
2017-08-09T00:00:55.012Z,0
2017-08-09T00:01:35.655Z,0
2017-08-09T00:02:16.231Z,0
2017-08-09T00:02:56.820Z,0
2017-08-09T00:03:37.417Z,0
2017-08-09T00:04:17.984Z,0
2017-08-09T00:04:58.557Z,0
2017-08-09T00:05:39.126Z,0
2017-08-09T00:06:19.694Z,0
2017-08-09T00:07:00.285Z,0
2017-08-09T00:07:40.849Z,0
2017-08-09T00:08:21.449Z,0
2017-08-09T00:09:02.033Z,0
2017-08-09T00:09:42.650Z,0
2017-08-09T00:10:23.239Z,0
2017-08-09T00:11:03.832Z,0
2017-08-09T00:11:44.403Z,0
2017-08-09T00:12:25.012Z,0
2017-08-09T00:13:05.600Z,0
2017-08-09T00:13:46.202Z,0
2017-08-09T00:14:26.782Z,0
2017-08-09T00:15:07.361Z,0
2017-08-09T00:15:47.940Z,0
2017-08-09T00:16:28.519Z,0
2017-08-09T00:17:09.101Z,0
2017-08-09T00:17:49.699Z,0
2017-08-09T00:18:30.271Z,0
2017-08-09T00:19:10.856Z,0
2017-08-09T00:19:51.453Z,0
2017-08-09T00:20:32.032Z,0
2017-08-09T00:21:12.607Z,0
2017-08-09T00:21:53.430Z,0
2017-08-09T00:22:34.027Z,0
2017-08-09T00:23:14.611Z,0
2017-08-09T00:23:55.192Z,0
2017-08-09T00:24:35.758Z,0
2017-08-09T00:25:16.327Z,0
2017-08-09T00:25:56.916Z,0
2017-08-09T00:26:37.511Z,0
2017-08-09T00:27:18.097Z,0
2017-08-09T00:27:58.692Z,0
2017-08-09T00:28:45.986Z,0
2017-08-09T00:29:26.551Z,0
2017-08-09T00:30:07.130Z,0
2017-08-09T00:30:47.716Z,0
2017-08-09T00:31:28.292Z,0
2017-08-09T00:32:08.890Z,0
2017-08-09T00:32:49.491Z,0
2017-08-09T00:33:30.062Z,0
2017-08-09T00:34:10.675Z,0
2017-08-09T00:34:51.250Z,0
2017-08-09T00:35:31.815Z,0
2017-08-09T00:36:12.414Z,0
2017-08-09T00:36:52.984Z,0
2017-08-09T00:37:33.558Z,0
2017-08-09T00:38:14.134Z,0
2017-08-09T00:38:54.707Z,0
2017-08-09T00:39:35.301Z,0
2017-08-09T00:40:15.856Z,0
2017-08-09T00:40:56.428Z,0
2017-08-09T00:41:36.999Z,0
2017-08-09T00:42:17.583Z,0
2017-08-09T00:42:58.159Z,0
2017-08-09T00:43:38.741Z,0
2017-08-09T00:44:19.325Z,0
2017-08-09T00:44:59.911Z,0
2017-08-09T00:45:40.474Z,0
2017-08-09T00:46:21.079Z,0
2017-08-09T00:47:01.653Z,0
2017-08-09T00:47:42.234Z,0
2017-08-09T00:48:22.832Z,0
2017-08-09T00:49:03.407Z,0
2017-08-09T00:49:43.969Z,0
2017-08-09T00:50:24.559Z,0
2017-08-09T00:51:05.131Z,0
2017-08-09T00:51:45.702Z,0
2017-08-09T00:52:26.294Z,0
2017-08-09T00:53:06.890Z,0
2017-08-09T00:53:47.455Z,0
2017-08-09T00:54:28.066Z,0
2017-08-09T00:55:08.638Z,0
2017-08-09T00:55:49.213Z,0
2017-08-09T00:56:29.803Z,0
2017-08-09T00:57:10.409Z,0
2017-08-09T00:57:51.047Z,0
2017-08-09T00:58:31.642Z,0
2017-08-09T00:59:12.231Z,0
2017-08-09T00:59:52.811Z,0
2017-08-09T01:00:33.392Z,0
2017-08-09T01:01:13.963Z,0
2017-08-09T01:01:54.535Z,0
2017-08-09T01:02:35.105Z,0
2017-08-09T01:03:15.693Z,0
2017-08-09T01:03:56.274Z,0
2017-08-09T01:04:36.882Z,0
2017-08-09T01:05:17.471Z,0
2017-08-09T01:05:58.047Z,0
2017-08-09T01:06:38.612Z,0
2017-08-09T01:07:19.198Z,0
2017-08-09T01:07:59.781Z,0
2017-08-09T01:08:40.347Z,0
2017-08-09T01:09:20.949Z,0
2017-08-09T01:10:01.540Z,0
2017-08-09T01:10:42.119Z,0
2017-08-09T01:11:22.704Z,0
2017-08-09T01:12:03.276Z,0
2017-08-09T01:12:43.885Z,0
2017-08-09T01:13:24.466Z,0
2017-08-09T01:14:05.031Z,0
2017-08-09T01:14:45.612Z,0
2017-08-09T01:15:26.224Z,0
2017-08-09T01:16:06.784Z,0
2017-08-09T01:16:47.379Z,0
2017-08-09T01:17:27.954Z,0
2017-08-09T01:18:08.546Z,0
2017-08-09T01:18:49.118Z,0
2017-08-09T01:19:29.690Z,0
2017-08-09T01:20:10.321Z,0
2017-08-09T01:20:50.896Z,0
2017-08-09T01:21:31.503Z,0
2017-08-09T01:22:12.077Z,0
2017-08-09T01:22:52.682Z,0
2017-08-09T01:23:33.246Z,0
2017-08-09T01:24:13.849Z,0
2017-08-09T01:24:54.441Z,0
2017-08-09T01:25:35.048Z,0
2017-08-09T01:26:15.655Z,0
2017-08-09T01:26:56.250Z,0
2017-08-09T01:27:36.862Z,0
2017-08-09T01:28:17.433Z,0
2017-08-09T01:28:58.011Z,0
2017-08-09T01:29:38.618Z,0
2017-08-09T01:30:19.187Z,0
2017-08-09T01:30:59.758Z,0
2017-08-09T01:31:40.370Z,0
2017-08-09T01:32:20.955Z,0
2017-08-09T01:33:01.542Z,0
2017-08-09T01:33:42.122Z,0
2017-08-09T01:34:22.703Z,0
2017-08-09T01:35:03.272Z,0
2017-08-09T01:35:43.858Z,0
2017-08-09T01:36:24.433Z,0
2017-08-09T01:37:05.005Z,0
2017-08-09T01:37:45.591Z,0
2017-08-09T01:38:26.170Z,0
2017-08-09T01:39:06.739Z,0
2017-08-09T01:39:47.336Z,0
2017-08-09T01:40:27.949Z,0
2017-08-09T01:41:08.530Z,0
2017-08-09T01:41:49.171Z,0
2017-08-09T01:42:29.756Z,0
2017-08-09T01:43:10.343Z,0
2017-08-09T01:43:50.908Z,0
2017-08-09T01:44:31.538Z,0
2017-08-09T01:45:12.115Z,0
2017-08-09T01:45:52.690Z,0
2017-08-09T01:46:33.262Z,0
2017-08-09T01:47:13.872Z,0
2017-08-09T01:47:54.444Z,0
2017-08-09T01:48:35.029Z,0
2017-08-09T01:49:15.651Z,0
2017-08-09T01:49:56.236Z,0
2017-08-09T01:50:36.828Z,0
2017-08-09T01:51:17.398Z,0
2017-08-09T01:51:57.996Z,0
2017-08-09T01:52:38.577Z,0
2017-08-09T01:53:19.151Z,0
2017-08-09T01:53:59.744Z,0
2017-08-09T01:54:40.328Z,0
2017-08-09T01:55:20.929Z,0
2017-08-09T01:56:01.562Z,0
2017-08-09T01:56:42.157Z,0
2017-08-09T01:57:22.723Z,0
2017-08-09T01:58:03.324Z,0
2017-08-09T01:58:43.937Z,0
2017-08-09T01:59:24.543Z,0
2017-08-09T02:00:05.132Z,0
2017-08-09T02:00:45.699Z,0
2017-08-09T02:01:26.299Z,0
2017-08-09T02:02:06.877Z,0
2017-08-09T02:02:47.473Z,0
2017-08-09T02:03:28.068Z,0
2017-08-09T02:04:08.642Z,0
2017-08-09T02:04:49.219Z,0
2017-08-09T02:05:29.806Z,0
2017-08-09T02:06:10.365Z,0
2017-08-09T02:06:50.951Z,0
2017-08-09T02:07:31.526Z,0
2017-08-09T02:08:12.106Z,0
2017-08-09T02:08:52.689Z,0
2017-08-09T02:09:33.269Z,0
2017-08-09T02:10:13.877Z,0
2017-08-09T02:10:54.471Z,0
2017-08-09T02:11:35.068Z,0
2017-08-09T02:12:15.622Z,0
2017-08-09T02:12:56.223Z,0
2017-08-09T02:13:36.801Z,0
2017-08-09T02:14:17.381Z,0
2017-08-09T02:14:57.959Z,0
2017-08-09T02:15:38.551Z,0
2017-08-09T02:16:19.128Z,0
2017-08-09T02:16:59.706Z,0
2017-08-09T02:17:40.290Z,0
2017-08-09T02:18:20.890Z,0
2017-08-09T02:19:01.473Z,0
2017-08-09T02:19:42.044Z,0
2017-08-09T02:20:22.645Z,0
2017-08-09T02:21:03.224Z,0
2017-08-09T02:21:43.824Z,0
2017-08-09T02:22:24.407Z,0
2017-08-09T02:23:04.980Z,0
2017-08-09T02:23:45.553Z,0
2017-08-09T02:24:26.149Z,0
2017-08-09T02:25:06.724Z,0
2017-08-09T02:25:47.342Z,0
2017-08-09T02:26:27.910Z,0
2017-08-09T02:27:08.482Z,0
2017-08-09T02:27:49.045Z,0
2017-08-09T02:28:29.602Z,0
2017-08-09T02:29:10.173Z,0
2017-08-09T02:29:50.756Z,0
2017-08-09T02:30:31.325Z,0
2017-08-09T02:31:11.915Z,0
2017-08-09T02:31:52.520Z,0
2017-08-09T02:32:33.109Z,0
2017-08-09T02:33:13.703Z,0
2017-08-09T02:33:54.274Z,0
2017-08-09T02:34:34.846Z,0
2017-08-09T02:35:15.471Z,0
2017-08-09T02:35:56.056Z,0
2017-08-09T02:36:36.632Z,0
2017-08-09T02:37:17.198Z,0
2017-08-09T02:37:57.779Z,0
2017-08-09T02:38:38.366Z,0
2017-08-09T02:39:18.937Z,0
2017-08-09T02:39:59.498Z,0
2017-08-09T02:40:40.071Z,0
2017-08-09T02:41:20.643Z,0
2017-08-09T02:42:01.248Z,0
2017-08-09T02:42:41.817Z,0
2017-08-09T02:43:22.391Z,0
2017-08-09T02:44:02.966Z,0
2017-08-09T02:44:43.539Z,0
2017-08-09T02:45:24.155Z,0
2017-08-09T02:46:04.747Z,0
2017-08-09T02:46:45.335Z,0
2017-08-09T02:47:25.937Z,0
2017-08-09T02:48:06.539Z,0
2017-08-09T02:48:47.162Z,0
2017-08-09T02:49:27.756Z,0
2017-08-09T02:50:08.329Z,0
2017-08-09T02:50:48.914Z,0
2017-08-09T02:51:29.507Z,0
2017-08-09T02:52:10.082Z,0
2017-08-09T02:52:50.654Z,0
2017-08-09T02:53:31.215Z,0
2017-08-09T02:54:11.794Z,0
2017-08-09T02:54:52.372Z,0
2017-08-09T02:55:32.951Z,0
2017-08-09T02:56:13.533Z,0
2017-08-09T02:56:54.108Z,0
2017-08-09T02:57:34.686Z,0
2017-08-09T02:58:15.253Z,0
2017-08-09T02:58:55.830Z,0
2017-08-09T02:59:36.410Z,0
2017-08-09T03:00:16.980Z,0
2017-08-09T03:00:57.559Z,0
2017-08-09T03:01:38.131Z,0
2017-08-09T03:02:18.722Z,0
2017-08-09T03:02:59.304Z,0
2017-08-09T03:03:39.888Z,0
2017-08-09T03:04:20.472Z,0
2017-08-09T03:05:01.041Z,0
2017-08-09T03:05:41.631Z,0
2017-08-09T03:06:22.201Z,0
2017-08-09T03:07:02.796Z,0
2017-08-09T03:07:43.377Z,0
2017-08-09T03:08:23.966Z,0
2017-08-09T03:09:04.582Z,0
2017-08-09T03:09:45.146Z,0
2017-08-09T03:10:25.823Z,0
2017-08-09T03:11:06.396Z,0
2017-08-09T03:11:46.982Z,0
2017-08-09T03:12:27.555Z,0
2017-08-09T03:13:08.130Z,0
2017-08-09T03:13:48.694Z,0
2017-08-09T03:14:29.268Z,4
2017-08-09T03:15:09.860Z,4
2017-08-09T03:15:50.447Z,4
2017-08-09T03:16:31.025Z,4
2017-08-09T03:17:11.589Z,4
2017-08-09T03:17:52.170Z,0
2017-08-09T03:18:32.744Z,0
2017-08-09T03:19:13.331Z,4
2017-08-09T03:19:53.904Z,4
2017-08-09T03:20:34.491Z,4
2017-08-09T03:21:15.111Z,8
2017-08-09T03:21:55.694Z,8
2017-08-09T03:22:36.274Z,12
2017-08-09T03:23:16.858Z,8
2017-08-09T03:23:57.476Z,12
2017-08-09T03:24:38.057Z,12
2017-08-09T03:25:18.659Z,12
2017-08-09T03:25:59.256Z,12
2017-08-09T03:26:39.838Z,20
2017-08-09T03:27:20.395Z,20
2017-08-09T03:28:00.960Z,20
2017-08-09T03:28:41.536Z,24
2017-08-09T03:29:22.112Z,28
2017-08-09T03:30:02.688Z,24
2017-08-09T03:30:43.268Z,24
2017-08-09T03:31:23.855Z,24
2017-08-09T03:32:04.425Z,24
2017-08-09T03:32:45.022Z,24
2017-08-09T03:33:25.607Z,28
2017-08-09T03:34:06.175Z,32
2017-08-09T03:34:46.774Z,36
2017-08-09T03:35:27.372Z,40
2017-08-09T03:36:07.950Z,44
2017-08-09T03:36:48.533Z,48
2017-08-09T03:37:29.108Z,52
2017-08-09T03:38:09.698Z,56
2017-08-09T03:38:50.297Z,56
2017-08-09T03:39:30.855Z,52
2017-08-09T03:40:11.441Z,56
2017-08-09T03:40:52.002Z,56
2017-08-09T03:41:32.596Z,52
2017-08-09T03:42:13.156Z,52
2017-08-09T03:42:53.731Z,56
2017-08-09T03:43:34.347Z,56
2017-08-09T03:44:14.919Z,60
2017-08-09T03:44:55.495Z,64
2017-08-09T03:45:36.112Z,72
2017-08-09T03:46:16.714Z,76
2017-08-09T03:46:57.300Z,88
2017-08-09T03:47:37.881Z,88
2017-08-09T03:48:18.466Z,100
2017-08-09T03:48:59.063Z,112
2017-08-09T03:49:39.653Z,132
2017-08-09T03:50:20.228Z,156
2017-08-09T03:51:00.837Z,180
2017-08-09T03:51:41.427Z,208
2017-08-09T03:52:22.018Z,236
2017-08-09T03:53:02.627Z,268
2017-08-09T03:53:43.210Z,284
2017-08-09T03:54:23.797Z,300
2017-08-09T03:55:04.370Z,300
2017-08-09T03:55:44.965Z,304
2017-08-09T03:56:25.544Z,300
2017-08-09T03:57:06.158Z,300
2017-08-09T03:57:46.762Z,308
2017-08-09T03:58:27.370Z,316
2017-08-09T03:59:07.954Z,324
2017-08-09T03:59:48.530Z,340
2017-08-09T04:00:29.113Z,372
2017-08-09T04:01:09.682Z,404
2017-08-09T04:01:50.253Z,432
2017-08-09T04:02:30.830Z,452
2017-08-09T04:03:11.415Z,468
2017-08-09T04:03:51.996Z,468
2017-08-09T04:04:32.595Z,464
2017-08-09T04:05:13.190Z,460
2017-08-09T04:05:53.826Z,456
2017-08-09T04:06:34.411Z,464
2017-08-09T04:07:15.012Z,464
2017-08-09T04:07:55.619Z,468
2017-08-09T04:08:36.210Z,480
2017-08-09T04:09:16.791Z,484
2017-08-09T04:09:57.364Z,496
2017-08-09T04:10:38.004Z,504
2017-08-09T04:11:18.575Z,504
2017-08-09T04:11:59.164Z,496
2017-08-09T04:12:39.757Z,472
2017-08-09T04:13:20.336Z,456
2017-08-09T04:14:00.958Z,472
2017-08-09T04:14:41.531Z,488
2017-08-09T04:15:22.111Z,504
2017-08-09T04:16:02.683Z,492
2017-08-09T04:16:43.260Z,496
2017-08-09T04:17:23.845Z,508
2017-08-09T04:18:04.445Z,520
2017-08-09T04:18:45.042Z,536
2017-08-09T04:19:25.618Z,548
2017-08-09T04:20:06.205Z,564
2017-08-09T04:20:46.772Z,592
2017-08-09T04:21:27.364Z,636
2017-08-09T04:22:07.938Z,664
2017-08-09T04:22:48.510Z,696
2017-08-09T04:23:29.082Z,724
2017-08-09T04:24:09.647Z,752
2017-08-09T04:24:50.227Z,788
2017-08-09T04:25:30.829Z,824
2017-08-09T04:26:11.418Z,848
2017-08-09T04:26:52.013Z,876
2017-08-09T04:27:32.579Z,928
2017-08-09T04:28:13.148Z,996
2017-08-09T04:28:53.764Z,1056
2017-08-09T04:29:34.384Z,1104
2017-08-09T04:30:14.949Z,1132
2017-08-09T04:30:55.520Z,1124
2017-08-09T04:31:36.113Z,1108
2017-08-09T04:32:16.719Z,1092
2017-08-09T04:32:57.295Z,1092
2017-08-09T04:33:37.868Z,1148
2017-08-09T04:34:18.459Z,1200
2017-08-09T04:34:59.029Z,1276
2017-08-09T04:35:39.616Z,1328
2017-08-09T04:36:20.218Z,1328
2017-08-09T04:37:00.762Z,1316
2017-08-09T04:37:41.356Z,1304
2017-08-09T04:38:21.948Z,1320
2017-08-09T04:39:02.513Z,1328
2017-08-09T04:39:43.086Z,1344
2017-08-09T04:40:23.655Z,1380
2017-08-09T04:41:04.236Z,1416
2017-08-09T04:41:44.824Z,1456
2017-08-09T04:42:25.394Z,1496
2017-08-09T04:43:05.989Z,1540
2017-08-09T04:43:46.558Z,1548
2017-08-09T04:44:27.145Z,1496
2017-08-09T04:45:07.710Z,1500
2017-08-09T04:45:48.294Z,1504
2017-08-09T04:46:28.877Z,1464
2017-08-09T04:47:09.460Z,1404
2017-08-09T04:47:50.046Z,1348
2017-08-09T04:48:30.634Z,1288
2017-08-09T04:49:11.231Z,1300
2017-08-09T04:49:51.950Z,1380
2017-08-09T04:50:32.531Z,1448
2017-08-09T04:51:13.106Z,1548
2017-08-09T04:51:53.678Z,1576
2017-08-09T04:52:34.267Z,1592
2017-08-09T04:53:14.836Z,1480
2017-08-09T04:53:55.448Z,1388
2017-08-09T04:54:36.024Z,1364
2017-08-09T04:55:16.609Z,1380
2017-08-09T04:55:57.181Z,1452
2017-08-09T04:56:37.768Z,1592
2017-08-09T04:57:18.351Z,1736
2017-08-09T04:57:58.953Z,1760
2017-08-09T04:58:39.542Z,1932
2017-08-09T04:59:20.135Z,1968
2017-08-09T05:00:00.743Z,1904
2017-08-09T05:00:41.345Z,1864
2017-08-09T05:01:21.921Z,1900
2017-08-09T05:02:02.481Z,1892
2017-08-09T05:02:43.056Z,1948
2017-08-09T05:03:23.645Z,2028
2017-08-09T05:04:04.242Z,2168
2017-08-09T05:04:44.808Z,2468
2017-08-09T05:05:25.423Z,2604
2017-08-09T05:06:05.975Z,2408
2017-08-09T05:06:46.554Z,2400
2017-08-09T05:07:27.175Z,2836
2017-08-09T05:08:07.775Z,3040
2017-08-09T05:08:48.346Z,3208
2017-08-09T05:09:28.930Z,3288
2017-08-09T05:10:09.518Z,3360
2017-08-09T05:10:50.099Z,3464
2017-08-09T05:11:30.680Z,3564
2017-08-09T05:12:11.266Z,3660
2017-08-09T05:12:51.896Z,3832
2017-08-09T05:13:32.467Z,4060
2017-08-09T05:14:13.034Z,4220
2017-08-09T05:14:53.620Z,4412
2017-08-09T05:15:34.211Z,4484
2017-08-09T05:16:14.777Z,4668
2017-08-09T05:16:55.348Z,4864
2017-08-09T05:17:35.928Z,5000
2017-08-09T05:18:16.529Z,4936
2017-08-09T05:18:57.099Z,4980
2017-08-09T05:19:37.672Z,5160
2017-08-09T05:20:18.245Z,5232
2017-08-09T05:20:58.837Z,5264
2017-08-09T05:21:39.411Z,5376
2017-08-09T05:22:19.987Z,5408
2017-08-09T05:23:00.589Z,5340
2017-08-09T05:23:41.181Z,5264
2017-08-09T05:24:21.774Z,5160
2017-08-09T05:25:02.350Z,4964
2017-08-09T05:25:42.926Z,4912
2017-08-09T05:26:23.533Z,4692
2017-08-09T05:27:04.124Z,4784
2017-08-09T05:27:44.706Z,4672
2017-08-09T05:28:25.281Z,4448
2017-08-09T05:29:05.849Z,4332
2017-08-09T05:29:46.451Z,4620
2017-08-09T05:30:27.028Z,4552
2017-08-09T05:31:07.611Z,4500
2017-08-09T05:31:48.178Z,4492
2017-08-09T05:32:28.784Z,4292
2017-08-09T05:33:09.367Z,4080
2017-08-09T05:33:49.965Z,4068
2017-08-09T05:34:30.532Z,4296
2017-08-09T05:35:11.103Z,4644
2017-08-09T05:35:51.685Z,4824
2017-08-09T05:36:32.275Z,4872
2017-08-09T05:37:12.881Z,4804
2017-08-09T05:37:53.471Z,4728
2017-08-09T05:38:34.045Z,4676
2017-08-09T05:39:14.627Z,4620
2017-08-09T05:39:55.210Z,4588
2017-08-09T05:40:35.787Z,4568
2017-08-09T05:41:16.361Z,4552
2017-08-09T05:41:56.944Z,4532
2017-08-09T05:42:37.524Z,4552
2017-08-09T05:43:18.492Z,4604
2017-08-09T05:43:59.089Z,4668
2017-08-09T05:44:39.698Z,4672
2017-08-09T05:45:20.287Z,6504
2017-08-09T05:46:00.868Z,18624
2017-08-09T05:46:41.460Z,35456
2017-08-09T05:47:22.048Z,52672
2017-08-09T05:48:02.619Z,66368
2017-08-09T05:48:43.207Z,69824
2017-08-09T05:49:23.803Z,67488
2017-08-09T05:50:04.415Z,66944
2017-08-09T05:50:45.067Z,68832
2017-08-09T05:51:25.742Z,71648
2017-08-09T05:52:06.310Z,72608
2017-08-09T05:52:46.885Z,70816
2017-08-09T05:53:27.459Z,70048
2017-08-09T05:54:08.044Z,71264
2017-08-09T05:54:48.646Z,75008
2017-08-09T05:55:29.229Z,76544
2017-08-09T05:56:09.820Z,78016
2017-08-09T05:56:50.538Z,78528
2017-08-09T05:57:31.906Z,77792
2017-08-09T05:58:12.477Z,77664
2017-08-09T05:58:53.054Z,77280
2017-08-09T05:59:33.633Z,77472
2017-08-09T06:00:14.218Z,77024
2017-08-09T06:00:54.991Z,75008
2017-08-09T06:01:35.611Z,73888
2017-08-09T06:02:16.190Z,74304
2017-08-09T06:02:56.792Z,73728
2017-08-09T06:03:37.500Z,71904
2017-08-09T06:04:18.079Z,72064
2017-08-09T06:04:58.666Z,71456
2017-08-09T06:05:39.600Z,71200
2017-08-09T06:06:20.766Z,73920
2017-08-09T06:07:01.351Z,76608
2017-08-09T06:07:42.021Z,77568
2017-08-09T06:08:22.704Z,79520
2017-08-09T06:09:03.860Z,81184
2017-08-09T06:09:44.568Z,81056
2017-08-09T06:10:25.365Z,79616
2017-08-09T06:11:05.961Z,76256
2017-08-09T06:11:46.735Z,76832
2017-08-09T06:12:27.564Z,78592
2017-08-09T06:13:08.451Z,78432
2017-08-09T06:13:49.266Z,78976
2017-08-09T06:14:29.878Z,78304
2017-08-09T06:15:10.489Z,75104
2017-08-09T06:15:51.075Z,68192
2017-08-09T06:16:32.059Z,68000
2017-08-09T06:17:12.915Z,79808
2017-08-09T06:17:53.557Z,80416
2017-08-09T06:18:34.698Z,79136
2017-08-09T06:19:15.394Z,78592
2017-08-09T06:19:55.979Z,78112
2017-08-09T06:20:36.928Z,75904
2017-08-09T06:21:17.572Z,71456
2017-08-09T06:21:58.457Z,63552
2017-08-09T06:22:39.126Z,75968
2017-08-09T06:23:20.035Z,75520
2017-08-09T06:24:00.800Z,77632
2017-08-09T06:24:41.392Z,76064
2017-08-09T06:25:21.974Z,76672
2017-08-09T06:26:02.564Z,76288
2017-08-09T06:26:43.126Z,77760
2017-08-09T06:27:23.719Z,80224
2017-08-09T06:28:04.295Z,82336
2017-08-09T06:28:44.907Z,80832
2017-08-09T06:29:25.498Z,79616
2017-08-09T06:30:06.091Z,78816
2017-08-09T06:30:46.712Z,77600
2017-08-09T06:31:27.326Z,76608
2017-08-09T06:32:07.907Z,79648
2017-08-09T06:32:48.499Z,82720
2017-08-09T06:33:29.096Z,84320
2017-08-09T06:34:09.693Z,81376
2017-08-09T06:34:50.284Z,79616
2017-08-09T06:35:30.868Z,79776
2017-08-09T06:36:11.461Z,79968
2017-08-09T06:36:52.054Z,82304
2017-08-09T06:37:32.658Z,83840
2017-08-09T06:38:13.249Z,84096
2017-08-09T06:38:53.859Z,83040
2017-08-09T06:39:34.455Z,81536
2017-08-09T06:40:15.084Z,84064
2017-08-09T06:40:55.664Z,85120
2017-08-09T06:41:36.272Z,85376
2017-08-09T06:42:16.873Z,85632
2017-08-09T06:42:57.486Z,88288
2017-08-09T06:43:38.074Z,87488
2017-08-09T06:44:18.658Z,87776
2017-08-09T06:44:59.275Z,84800
2017-08-09T06:45:39.871Z,82368
2017-08-09T06:46:20.444Z,80384
2017-08-09T06:47:01.057Z,80160
2017-08-09T06:47:41.661Z,81952
2017-08-09T06:48:22.242Z,83616
2017-08-09T06:49:02.872Z,84192
2017-08-09T06:49:43.445Z,83680
2017-08-09T06:50:24.050Z,83904
2017-08-09T06:51:04.669Z,84896
2017-08-09T06:51:45.259Z,84288
2017-08-09T06:52:25.846Z,79936
2017-08-09T06:53:06.442Z,71456
2017-08-09T06:53:47.132Z,60928
2017-08-09T06:54:27.737Z,60992
2017-08-09T06:55:08.452Z,59776
2017-08-09T06:55:49.298Z,61856
2017-08-09T06:56:30.121Z,70080
2017-08-09T06:57:10.701Z,76416
2017-08-09T06:57:51.920Z,75456
2017-08-09T06:58:32.649Z,48928
2017-08-09T06:59:13.347Z,26944
2017-08-09T06:59:54.036Z,20032
2017-08-09T07:00:34.613Z,28160
2017-08-09T07:01:15.315Z,36064
2017-08-09T07:01:55.969Z,33728
2017-08-09T07:02:36.711Z,34880
2017-08-09T07:03:17.524Z,32672
2017-08-09T07:03:58.119Z,40480
2017-08-09T07:04:38.867Z,46912
2017-08-09T07:05:19.578Z,43776
2017-08-09T07:06:00.155Z,38528
2017-08-09T07:06:40.745Z,20896
2017-08-09T07:07:21.346Z,27744
2017-08-09T07:08:01.929Z,24320
2017-08-09T07:08:42.515Z,33632
2017-08-09T07:09:23.094Z,41792
2017-08-09T07:10:03.679Z,43648
2017-08-09T07:10:44.254Z,37376
2017-08-09T07:11:24.843Z,29824
2017-08-09T07:12:05.422Z,25248
2017-08-09T07:12:46.019Z,30304
2017-08-09T07:13:26.625Z,36128
2017-08-09T07:14:07.219Z,36832
2017-08-09T07:14:47.811Z,35744
2017-08-09T07:15:28.395Z,41952
2017-08-09T07:16:09.026Z,37888
2017-08-09T07:16:49.647Z,54752
2017-08-09T07:17:30.222Z,57056
2017-08-09T07:18:10.793Z,51744
2017-08-09T07:18:51.392Z,57920
2017-08-09T07:19:31.985Z,42816
2017-08-09T07:20:12.574Z,30272
2017-08-09T07:20:53.168Z,26784
2017-08-09T07:21:33.762Z,25984
2017-08-09T07:22:14.359Z,41152
2017-08-09T07:22:54.945Z,49184
2017-08-09T07:23:35.535Z,48512
2017-08-09T07:24:16.121Z,43232
2017-08-09T07:24:56.700Z,41248
2017-08-09T07:25:37.290Z,43712
2017-08-09T07:26:17.884Z,35424
2017-08-09T07:26:58.513Z,31008
2017-08-09T07:27:39.089Z,37920
2017-08-09T07:28:19.675Z,39168
2017-08-09T07:29:00.281Z,27616
2017-08-09T07:29:40.862Z,26848
2017-08-09T07:30:21.444Z,27200
2017-08-09T07:31:02.038Z,20544
2017-08-09T07:31:42.609Z,22688
2017-08-09T07:32:23.206Z,29376
2017-08-09T07:33:03.784Z,30368
2017-08-09T07:33:44.389Z,44416
2017-08-09T07:34:24.987Z,52320
2017-08-09T07:35:05.582Z,55840
2017-08-09T07:35:46.178Z,62848
2017-08-09T07:36:26.773Z,66624
2017-08-09T07:37:07.454Z,75776
2017-08-09T07:37:48.035Z,79808
2017-08-09T07:38:28.620Z,76800
2017-08-09T07:39:09.203Z,66208
2017-08-09T07:39:49.800Z,60064
2017-08-09T07:40:30.390Z,54880
2017-08-09T07:41:10.985Z,45152
2017-08-09T07:41:51.587Z,41408
2017-08-09T07:42:32.176Z,31776
2017-08-09T07:43:12.777Z,27424
2017-08-09T07:43:53.379Z,30176
2017-08-09T07:44:33.971Z,30432
2017-08-09T07:45:14.547Z,20864
2017-08-09T07:45:55.170Z,16832
2017-08-09T07:46:35.763Z,20096
2017-08-09T07:47:16.339Z,19680
2017-08-09T07:47:56.931Z,22976
2017-08-09T07:48:37.513Z,28864
2017-08-09T07:49:18.106Z,34048
2017-08-09T07:49:58.739Z,30176
2017-08-09T07:50:39.338Z,27200
2017-08-09T07:51:19.916Z,33728
2017-08-09T07:52:00.512Z,36608
2017-08-09T07:52:41.098Z,36160
2017-08-09T07:53:21.678Z,33152
2017-08-09T07:54:02.279Z,30112
2017-08-09T07:54:42.869Z,31744
2017-08-09T07:55:23.447Z,34048
2017-08-09T07:56:04.024Z,40512
2017-08-09T07:56:44.638Z,38880
2017-08-09T07:57:25.225Z,30080
2017-08-09T07:58:05.841Z,21696
2017-08-09T07:58:46.407Z,17824
2017-08-09T07:59:27.015Z,14164
2017-08-09T08:00:07.634Z,12340
2017-08-09T08:00:48.217Z,11812
2017-08-09T08:01:28.812Z,9992
2017-08-09T08:02:09.428Z,10928
2017-08-09T08:02:50.016Z,12308
2017-08-09T08:03:30.589Z,13756
2017-08-09T08:04:11.181Z,14104
2017-08-09T08:04:51.760Z,16896
2017-08-09T08:05:32.366Z,13172
2017-08-09T08:06:12.980Z,12832
2017-08-09T08:06:53.567Z,13784
2017-08-09T08:07:34.205Z,12264
2017-08-09T08:08:14.787Z,12344
2017-08-09T08:08:55.362Z,14416
2017-08-09T08:09:35.951Z,15852
2017-08-09T08:10:16.544Z,15892
2017-08-09T08:10:57.138Z,15008
2017-08-09T08:11:37.752Z,13660
2017-08-09T08:12:18.379Z,12480
2017-08-09T08:12:58.951Z,11756
2017-08-09T08:13:39.756Z,11368
2017-08-09T08:14:20.376Z,9920
2017-08-09T08:15:00.958Z,8352
2017-08-09T08:15:41.544Z,7492
2017-08-09T08:16:22.112Z,7012
2017-08-09T08:17:02.702Z,7620
2017-08-09T08:17:43.299Z,9072
2017-08-09T08:18:23.874Z,11660
2017-08-09T08:19:04.446Z,12596
2017-08-09T08:19:45.062Z,12132
2017-08-09T08:20:25.639Z,11784
2017-08-09T08:21:06.218Z,11924
2017-08-09T08:21:46.821Z,11392
2017-08-09T08:22:27.409Z,10460
2017-08-09T08:23:08.010Z,9872
2017-08-09T08:23:48.687Z,9308
2017-08-09T08:24:29.358Z,8848
2017-08-09T08:25:09.972Z,8668
2017-08-09T08:25:50.562Z,8536
2017-08-09T08:26:31.167Z,8268
2017-08-09T08:27:11.772Z,8104
2017-08-09T08:27:52.432Z,7856
2017-08-09T08:28:33.017Z,7584
2017-08-09T08:29:13.604Z,7396
2017-08-09T08:29:54.390Z,7264
2017-08-09T08:30:35.222Z,7224
2017-08-09T08:31:17.131Z,7268
2017-08-09T08:31:57.602Z,7308
2017-08-09T08:32:38.272Z,7372
2017-08-09T08:33:19.027Z,7416
2017-08-09T08:33:59.714Z,7328
2017-08-09T08:34:40.298Z,7300
2017-08-09T08:35:20.949Z,7292
2017-08-09T08:36:01.517Z,7248
2017-08-09T08:36:42.288Z,7320
2017-08-09T08:37:23.108Z,7536
2017-08-09T08:38:03.703Z,8116
2017-08-09T08:38:44.312Z,8568
2017-08-09T08:39:25.421Z,9040
2017-08-09T08:40:06.024Z,9424
2017-08-09T08:40:46.959Z,10204
2017-08-09T08:41:28.042Z,11484
2017-08-09T08:42:08.779Z,11936
2017-08-09T08:42:49.362Z,12496
2017-08-09T08:43:29.958Z,12584
2017-08-09T08:44:10.563Z,13164
2017-08-09T08:44:51.563Z,12880
2017-08-09T08:45:32.120Z,12364
2017-08-09T08:46:12.689Z,11948
2017-08-09T08:46:53.261Z,11464
2017-08-09T08:47:33.870Z,11064
2017-08-09T08:48:14.456Z,10744
2017-08-09T08:48:55.078Z,10340
2017-08-09T08:49:35.654Z,9704
2017-08-09T08:50:16.257Z,9132
2017-08-09T08:50:56.840Z,8748
2017-08-09T08:51:37.484Z,8468
2017-08-09T08:52:18.070Z,8260
2017-08-09T08:52:58.671Z,8060
2017-08-09T08:53:39.347Z,7844
2017-08-09T08:54:20.147Z,7688
2017-08-09T08:55:01.232Z,7576
2017-08-09T08:55:41.700Z,7484
2017-08-09T08:56:22.294Z,7372
2017-08-09T08:57:02.926Z,7256
2017-08-09T08:57:43.640Z,7212
2017-08-09T08:58:24.489Z,7164
2017-08-09T08:59:05.288Z,7100
2017-08-09T08:59:46.139Z,6968
2017-08-09T09:00:27.024Z,6896
2017-08-09T09:01:07.792Z,6876
2017-08-09T09:01:48.525Z,6896
2017-08-09T09:02:29.176Z,6952
2017-08-09T09:03:09.849Z,6888
2017-08-09T09:03:51.642Z,6708
2017-08-09T09:04:33.199Z,6540
2017-08-09T09:05:13.729Z,6408
2017-08-09T09:05:54.566Z,6304
2017-08-09T09:06:35.387Z,6248
2017-08-09T09:07:57.163Z,6068
2017-08-09T09:08:38.384Z,5996
2017-08-09T09:09:19.216Z,5924
2017-08-09T09:10:00.056Z,5888
2017-08-09T09:10:40.904Z,5896
2017-08-09T09:11:21.614Z,5920
2017-08-09T09:12:02.749Z,6020
2017-08-09T09:12:44.053Z,6084
2017-08-09T09:13:25.043Z,6200
2017-08-09T09:14:06.041Z,6328
2017-08-09T09:14:46.764Z,6740
2017-08-09T09:15:27.402Z,7076
2017-08-09T09:16:08.099Z,7136
2017-08-09T09:16:48.837Z,7360
2017-08-09T09:17:29.679Z,6936
2017-08-09T09:18:10.546Z,6668
2017-08-09T09:18:51.409Z,6564
2017-08-09T09:19:32.551Z,6388